今日のアクセス数

    岡山グライダークラブ活動状況掲示板あなたは無料カウンター人目の訪問者です

岡山グライダークラブ
岡山市浦安南町639-1 岡南飛行場
 使用機:シャイベ式 SF25C型 ファルケ   JA2330
      ヴァレンティン式17E型 タイフーン  JA2342
 練習日:毎日曜日  クラブルーム:電話 086-265-1810
この掲示板は岡山グライダークラブの活動状況をお知らせする掲示板です。
!!!この掲示板は投稿規制をしています。!!!
クラブ関連各種情報は 岡山グライダークラブクラブルーム      を       .
  ブリーフイング情報は  岡山グライダークラブブリーフィングルーム  をご覧下さい。 .
※写真はクリックすると拡大して見ることが出来ます。
岡南飛行場へのアクセス等は 岡南飛行場管理事務所 をご覧ください。
クラブの ホームページ ができました。

ページ 1 (1〜10)ホームページへ戻る

10月18日
by OGC at 2020/10/18(日) 20:15:07 No.20201018200931 コメント】  削除 引用
1024 x 768 x 75,446バイト
No.1
1024 x 768 x 91,668バイト
No.2

1024 x 768 x 78,103バイト
No.3
1024 x 768 x 120,587バイト
No.4


@本日のゲストさん(その1)
 会員の知り合いのゲストさんも体験飛行をされました。

A本日のゲストさん(その2)
 体験飛行どうでした?

B瀬戸の島々
 朝から一変し、視程が良くなりました。

C本日の集合写真
 本日も楽しく飛び回りました。(^_^)v


 HDD「データ復元」ino    データ復旧、MAC、料金、ino

10月18日
by OGC at 2020/10/18(日) 19:46:13 No.20201018194155 コメント】  削除 引用
1024 x 768 x 90,274バイト
No.1

10月18日
本日の参加者
  会員      14名
  その他      1名


@本日の様子






METAR
RJBK 180000Z VRB01KT 20KM FEW004ST SCT008ST BKN015CU 13/12 Q1022 A3020
RJOB 180000Z VRB02KT 9999 PRFG FEW000 SCT180 BKN/// 12/12 Q1022
RJOT 180000Z 14005KT 9999 FEW005 SCT130 BKN170 13/13 Q1022
RJOA 180000Z 29004KT 230V350 9999 FEW001 BKN/// 13/10 Q1023
TAF
RJOB 172306Z 1800/1906 07005KT 9999 FEW025 SCT045
RJOT 172307Z 1800/1906 05006KT 9999 FEW030
RJOA 172305Z 1800/1906 14005KT 9999 FEW030
     BECMG 1809/1811 32006KT
     BECMG 1821/1900 12005KT

今朝は雲が低く視程も悪い状態でしたが、日差しが当たりだすと視程もよくなり、
風もほとんどない絶好の着陸練習日和になりました。
訓練生はTGL訓練や滑空着陸、ライセンサーはNAVに出たり滑空時間を稼いで
いました。
また、本日、見学者1名が体験飛行をされました。


解散    17:50

1番機  11:50離陸 撤収機  17:10着陸 

SF25C JA2330 ファルケ     11Flt.3h40min  
17E   JA2342 タイフーン    05Flt.2h20min  
合計                    16Flt.6h00min

10月11日
by OGC at 2020/10/11(日) 21:41:02 No.20201011213638 コメント】  削除 引用
1024 x 768 x 90,594バイト
No.1

10月11日
本日の参加者
  会員      14名
  その他      1名


@本日の様子






METAR
RJBK 110100Z 15005KT 120V150 30KM FEW030CU 23/17 Q1013 A2992
RJOB 110100Z 31006KT 260V030 9999 FEW020 SCT025 23/17 Q1013
RJOT 110100Z 30005KT 9999 FEW020 22/17 Q1014
RJOA 110100Z VRB02KT 9999 FEW025 21/15 Q1014
TAF
RJOB RJOB 102312Z 1100/1206 01006KT 9999 FEW020 SCT040
     BECMG 1200/1203 24005KT
RJOT 102308Z 1100/1206 32005KT 9999 FEW015 BKN040
     BECMG 1112/1115 15006KT
     BECMG 1200/1203 32005KT
RJOA 102305Z 1100/1206 34005KT 9999 FEW020 BKN035
     BECMG 1101/1103 16005KT
     BECMG 1108/1110 35008KT

本日は一時、雲が減りサーマルを期待しましたが、すぐ雲が多くなり穏やかな一日となりました。
訓練生はサーマルソアリングやNAV訓練、ライセンサーはいつも通り周辺を短くフライトしていました。
また、本日、見学者1名が体験飛行をされました。


解散    17:50

1番機  11:20離陸 撤収機  17:25着陸 

SF25C JA2330 ファルケ     08Flt.3h50min  
17E   JA2342 タイフーン    04Flt.1h00min  
合計                    10Flt.4h50min
10月04日
by OGC at 2020/10/4(日) 19:56:02 No.20201004195109 コメント】  削除 引用
1024 x 768 x 70,090バイト
No.1

10月04日
本日の参加者
  会員      15名
  その他      0名


@本日の様子






METAR
RJBK 040000Z VRB02KT 08KM FEW032CU SCT060SC BKN120AC 22/19 Q1013 A2992
RJOB 040000Z 10004KT 9000 FEW020 SCT035 BKN100 20/18 Q1014
RJOT 040000Z 14004KT 100V170 9999 FEW025 BKN080 BKN100 22/19 Q1013
RJOA 040000Z 12003KT 5000 BCFG BR FEW000 SCT015 BKN080 20/19 Q1014
TAF
RJOB 032307Z 0400/0506 18004KT 9999 FEW020 SCT045
RJOT 032305Z 0400/0506 05005KT 9999 FEW025 BKN060
     BECMG 0412/0415 24005KT
RJOA 032309Z 0400/0506 15004KT 9999 FEW025
     BECMG 0412/0415 26006KT
     BECMG 0418/0421 32011KT

本日は曇りで風も穏やかで、みんな、離着陸訓練を行っていました。


解散    17:50

1番機  10:30離陸 撤収機  17:10着陸 

SF25C JA2330 ファルケ     10Flt.3h50min  
17E   JA2342 タイフーン    00Flt.0h00min  
合計                    10Flt.3h50min
09月27日
by OGC at 2020/9/27(日) 20:17:06 No.20200927201416 コメント】  削除 引用
1024 x 768 x 82,697バイト
No.1

09月27日
本日の参加者
  会員      17名
  その他      0名


@本日の様子






METAR
RJBK 270000Z 32005KT 270V010 40KM FEW025CU BKN070AC 23/16 Q1013 A2992
RJOB 270000Z VRB06KT 9999 FEW020 BKN080 20/15 Q1014
RJOT 270000Z 25005KT 220V290 9999 FEW010 SCT040 BKN050 22/18 Q1014
RJOA 270000Z 35010KT 320V040 9999 FEW020 SCT060 20/13 Q1015
TAF
RJOB 262307Z 2700/2806 36008KT 9999 FEW030 SCT040
RJOT 262309Z 2700/2806 29006KT 9999 FEW025 SCT040 BKN050
     BECMG 2700/2702 35008KT
     BECMG 2708/2710 19006KT
     BECMG 2800/2803 03006KT
RJOA 262306Z 2700/2806 02008KT 9999 FEW020 SCT045
     BECMG 2704/2706 34010KT
     BECMG 2721/2800 03008KT

本日は癖の悪い横風。みんな、離着陸で苦戦していました。
みんな、サーマルやリッジ狙いで、飛びまわっていました。

解散    17:50

1番機  10:15離陸 撤収機  17:30着陸 

SF25C JA2330 ファルケ     11Flt.4h15hmin  
17E   JA2342 タイフーン    04Flt.2h20min  
合計                    15Flt.6h35min
09月20日
by OGC at 2020/9/21(月) 01:12:26 No.20200921010837 コメント】  削除 引用
1024 x 768 x 92,404バイト
No.1

09月20日
本日の参加者
  会員      13名
  その他      0名


@本日の様子






METAR
RJOB 200000Z VRB01KT 9999 FEW025 BKN/// 20/14 Q1015
RJOT 200000Z 10003KT 060V130 9999 FEW030 SCT150 BKN/// 22/14 Q1016
RJOA 200000Z 29004KT CAVOK 22/07 Q1016
TAF
RJOB 192305Z 2000/2106 08004KT 9999 FEW025
     BECMG 2000/2002 21006KT
     BECMG 2008/2010 34006KT
RJOT 192310Z 2000/2106 15004KT 9999 FEW030
     BECMG 2000/2002 26006KT
     BECMG 2012/2015 15004KT
RJOA 192306Z 2000/2106 19005KT 9999 FEW030
     BECMG 2008/2010 34011KT
     BECMG 2100/2103 04008KT

本日は曇りで、サーマルも期待できないため、ライセンサーは高松空港や豊浜方面へNAVに出ていました。
訓練生は、与島へNAVに出たり、基礎訓練を行っていました。

解散    17:40

1番機  11:05離陸 撤収機  17:20着陸 

SF25C JA2330 ファルケ     08Flt.3h35hmin  
17E   JA2342 タイフーン    04Flt.2h20min  
合計                    12Flt.5h55min
09月13日
by OGC at 2020/9/13(日) 22:48:59 No.20200913224512 コメント】  削除 引用
1024 x 768 x 104,318バイト
No.1

09月13日
本日の参加者
  会員      15名
  その他      0名


@本日の様子






METAR
RJBK 130000Z 28008KT 30KM FEW020CU SCT/// 26/22 Q1011 A2987
RJOB 130000Z 29006KT 260V340 9999 FEW010 SCT020 BKN/// 25/20 Q1012
RJOT 130000Z 27008KT 9999 FEW004 SCT030 BKN100 24/21 Q1012
RJOA 130000Z 29010KT 9999 FEW020 SCT/// 23/18 Q1013
TAF
RJOB 122306Z 1300/1406 25005KT 9999 FEW020 SCT040
     BECMG 1306/1308 36005KT
     BECMG 1400/1403 19005KT
RJOT 122311Z 1300/1406 26008KT 9999 FEW020 SCT040
RJOA 122309Z 1300/1406 31008KT 9999 FEW020 SCT030 BKN045
     BECMG 1321/1400 17005KT

本日は、積雲がポコポコと出来ていましたので、みんな期待を膨らませ、サーマルを
探して飛び回ったり、加古川や小豆島、与島へNAVに出ていていました。。。
また、先週、自家用操縦技能証明の実地試験があり、見事、合格いたしました。


解散    17:20

1番機  11:10離陸 撤収機  17:00着陸 

SF25C JA2330 ファルケ     07Flt.3h15hmin  
17E   JA2342 タイフーン    05Flt.3h15min  
合計                    12Flt.6h30min
09月06日
by OGC at 2020/9/7(月) 01:57:45 No.20200907015616 コメント】  削除 引用
1024 x 768 x 71,691バイト
No.1

09月06日
本日の参加者
  会員      16名
  その他      0名


@本日の様子






METAR
RJBK 060000Z 07011KT 30KM FEW030CU 29/23 Q1007 A2976
RJOB 060000Z 09009KT 9999 FEW015 SCT050 27/22 Q1009
RJOT 060000Z 06013KT 9999 FEW008 SCT025 28/24 Q1008
RJOA 060000Z 07011KT 9999 FEW015 SCT160 28/22 Q1008
TAF
RJOB 052311Z 0600/0706 09013KT 9999 FEW020 SCT040
     BECMG 0610/0612 10020G32KT
     TEMPO 0610/0615 4000 SHRA BR
     BECMG 0700/0703 18014KT
RJOT 052308Z 0600/0706 08013KT 9000 -SHRA FEW020 BKN030
     TEMPO 0605/0607 08016G26KT
     TEMPO 0607/0615 08016G26KT 4000 SHRA BR FEW001 SCT003 BKN005
     BECMG 0615/0618 15012KT
RJOA 052313Z 0600/0706 09020KT 9999 FEW020 SCT035
     TEMPO 0609/0618 09023G33KT 4000 SHRA BR FEW003 SCT005 BKN008
     BECMG 0700/0703 15012KT

本日は台風10号の影響で風が拾数KT、15時頃から雷雨に見舞われ、早めにフライトを終了しました。
また、本日、タイフーンも耐空検査に合格し、やっと、2機運用に戻りました。


解散    16:00

1番機  11:00離陸 撤収機  14:40着陸 

SF25C JA2330 ファルケ     04Flt.2h10hmin  
17E   JA2342 タイフーン    03Flt.1h00min  
合計                    07Flt.3h10min
8月30日
by OGC at 2020/8/30(日) 20:14:26 No.20200830201052 コメント】  削除 引用
1024 x 768 x 83,531バイト
No.1

08月31日
本日の参加者
  会員      17名
  その他      0名


@本日の様子






METAR
RJBK 300000Z 14003KT 100V200 30KM FEW035CU SCT025CU BKN/// 30/25 Q1010 A2984
RJOB 300000Z VRB01KT 9999 FEW020 29/24 Q1012
RJOT 300000Z VRB02KT 9999 FEW015 SCT070 BKN100 28/25 Q1012
RJOA 300000Z 13003KT 060V180 9999 FEW025 30/23 Q1012
TAF
RJOB 292305Z 3000/3106 12005KT 9999 FEW020
     TEMPO 3005/3007 TS FEW015 FEW020CB SCT040
     TEMPO 3007/3010 2000 +TSRA BR FEW005 SCT015 FEW020CB BKN030
RJOT 292307Z 3000/3106 05007KT 9999 FEW025 SCT035
     TEMPO 3003/3006 TS FEW020 FEW025CB SCT030
RJOA 292305Z 3000/3106 14005KT 9999 FEW025
     TEMPO 3006/3009 TS FEW020 FEW025CB SCT030
     BECMG 3009/3011 32004KT
     TEMPO 3009/3012 3000 TSRA BR FEW005 SCT015 BKN025 FEW025CB
     BECMG 3021/3100 14005KT

本日は、先週に続き、積乱雲が午後3時過ぎから岡山空港あたりに発生し、気流も荒れてきたため、早めにフライトを終了しました。
ファルケは、積雲が発達していたので、エンジンカットでソアリングの訓練を楽しんで、一方、タイフーンは、社内試験フライトと整備を行い、次週、耐空検査を行う予定です。


解散    17:10

1番機  10:35離陸 撤収機  15:50着陸 

SF25C JA2330 ファルケ     07Flt.3h20hmin  
17E   JA2342 タイフーン    01Flt.0h45min  
合計                    08Flt.4h05min
08月23日
by OGC at 2020/8/24(月) 01:46:15 No.20200824014331 コメント】  削除 引用
1024 x 768 x 52,372バイト
No.1

08月23日
本日の参加者
  会員      15名
  その他      0名


@本日の様子






METAR
RJBK 230000Z 13004KT 090V190 15KM FEW015CU SCT025CU BKN/// 30/25 Q1008 A2979
RJOB 230000Z VRB01KT 9999 FEW015 SCT/// 28/23 Q1009
RJOT 230000Z 34003KT 290V050 9999 FEW020 BKN/// 29/24 Q1010
RJOA 230000Z VRB03KT 8000 FEW010 SCT015 BKN/// 26/22 Q1011
TAF
RJOB 222312Z 2300/2406 22004KT 9999 FEW015 SCT030
     TEMPO 2308/2312 TS FEW015 SCT020 FEW025CB BKN035
RJOT 222309Z 2300/2406 04006KT 9999 FEW025 SCT050
     BECMG 2306/2308 25005KT
     BECMG 2312/2315 15006KT
RJOA 222305Z 2300/2406 15005KT 9999 FEW020 SCT030
     TEMPO 2305/2309 TS FEW020 FEW025CB SCT030
     BECMG 2308/2310 32005KT
     BECMG 2321/2400 17005KT

本日は、レーダー画像の濃い雨雲が、岡南飛行場の直前に消滅したり、岡南飛行場の北側をかすめて通り過ぎたり、まさに「晴れの飛行場、岡南」でした。
ファルケは、先週から通常訓練を開始し、訓練生各々に課題解決にいそしんでいました。一方、タイフーンは整備が進み、来週には社内試験、耐空検査を受ける予定です。
また、本日、学生会員が入会し、平均年齢がググっと下がりました。

解散    18:30

1番機  10:35離陸 撤収機  17:40着陸 

SF25C JA2330 ファルケ     09Flt.4h25hmin  
17E   JA2342 タイフーン    00Flt.0h00min  
合計                    09Flt.4h25min

 HDD「データ復元」ino    データ復旧、MAC、料金、ino

ホームページへ 全 52 件 [ 1 2 3 4 5 6 ]

モータースポーツ | 管理者へメール | お知らせ | 一括削除
携帯から使う方法 | ヘルプ | 利用規約 | 違反報告 | 管理パネル



- 無料レンタル掲示板 -